sensor_id;sensor_type;location;lat;lon;timestamp;pressure;altitude;pressure_sealevel;temperature;humidity
59789;BME280;47353;51.614;5.530;2023-05-19T00:02:09;102550.66;;;8.47;75.63
59789;BME280;47353;51.614;5.530;2023-05-19T00:04:35;102548.34;;;8.43;75.91
59789;BME280;47353;51.614;5.530;2023-05-19T00:07:02;102550.47;;;8.41;76.24
59789;BME280;47353;51.614;5.530;2023-05-19T00:09:28;102542.25;;;8.28;77.08
59789;BME280;47353;51.614;5.530;2023-05-19T00:11:53;102546.72;;;8.29;77.06
59789;BME280;47353;51.614;5.530;2023-05-19T00:14:20;102545.44;;;8.25;77.50
59789;BME280;47353;51.614;5.530;2023-05-19T00:16:46;102548.63;;;8.22;77.57
59789;BME280;47353;51.614;5.530;2023-05-19T00:19:13;102546.97;;;8.15;78.53
59789;BME280;47353;51.614;5.530;2023-05-19T00:21:38;102543.56;;;8.13;79.09
59789;BME280;47353;51.614;5.530;2023-05-19T00:24:04;102543.78;;;8.11;79.32
59789;BME280;47353;51.614;5.530;2023-05-19T00:26:30;102541.47;;;8.08;79.52
59789;BME280;47353;51.614;5.530;2023-05-19T00:28:55;102541.06;;;8.05;80.05
59789;BME280;47353;51.614;5.530;2023-05-19T00:31:21;102537.03;;;8.01;80.25
59789;BME280;47353;51.614;5.530;2023-05-19T00:33:46;102532.19;;;7.96;81.31
59789;BME280;47353;51.614;5.530;2023-05-19T00:36:12;102533.88;;;7.97;81.94
59789;BME280;47353;51.614;5.530;2023-05-19T00:38:38;102536.47;;;7.92;82.45
59789;BME280;47353;51.614;5.530;2023-05-19T00:41:04;102524.78;;;7.90;83.03
59789;BME280;47353;51.614;5.530;2023-05-19T00:43:30;102519.94;;;7.86;83.41
59789;BME280;47353;51.614;5.530;2023-05-19T00:45:58;102518.69;;;7.82;83.96
59789;BME280;47353;51.614;5.530;2023-05-19T00:48:24;102520.59;;;7.81;84.13
59789;BME280;47353;51.614;5.530;2023-05-19T00:50:50;102522.50;;;7.74;84.65
59789;BME280;47353;51.614;5.530;2023-05-19T00:53:18;102518.72;;;7.69;85.62
59789;BME280;47353;51.614;5.530;2023-05-19T00:55:44;102515.97;;;7.69;85.79
59789;BME280;47353;51.614;5.530;2023-05-19T00:58:11;102516.00;;;7.62;86.28
59789;BME280;47353;51.614;5.530;2023-05-19T01:07:42;102521.50;;;7.56;87.03
59789;BME280;47353;51.614;5.530;2023-05-19T01:10:08;102523.47;;;7.49;87.24
59789;BME280;47353;51.614;5.530;2023-05-19T01:12:34;102523.25;;;7.44;87.97
59789;BME280;47353;51.614;5.530;2023-05-19T01:15:01;102525.19;;;7.43;88.43
59789;BME280;47353;51.614;5.530;2023-05-19T01:17:44;102521.13;;;7.39;89.04
59789;BME280;47353;51.614;5.530;2023-05-19T01:20:23;102521.56;;;7.36;89.04
59789;BME280;47353;51.614;5.530;2023-05-19T01:26:32;102530.91;;;7.29;89.59
59789;BME280;47353;51.614;5.530;2023-05-19T01:31:47;102523.50;;;7.23;90.31
59789;BME280;47353;51.614;5.530;2023-05-19T01:34:15;102518.66;;;7.18;90.69
59789;BME280;47353;51.614;5.530;2023-05-19T01:36:42;102527.13;;;7.17;91.04
59789;BME280;47353;51.614;5.530;2023-05-19T01:39:09;102523.09;;;7.13;91.53
59789;BME280;47353;51.614;5.530;2023-05-19T01:41:37;102524.16;;;7.12;91.95
59789;BME280;47353;51.614;5.530;2023-05-19T01:44:06;102516.31;;;7.09;91.95
59789;BME280;47353;51.614;5.530;2023-05-19T01:46:32;102520.97;;;7.08;92.12
59789;BME280;47353;51.614;5.530;2023-05-19T01:48:58;102520.75;;;7.10;92.32
59789;BME280;47353;51.614;5.530;2023-05-19T01:51:24;102508.28;;;7.07;92.65
59789;BME280;47353;51.614;5.530;2023-05-19T01:53:49;102511.88;;;7.08;92.60
59789;BME280;47353;51.614;5.530;2023-05-19T01:56:19;102500.03;;;7.07;92.15
59789;BME280;47353;51.614;5.530;2023-05-19T01:58:57;102507.41;;;7.07;92.87
59789;BME280;47353;51.614;5.530;2023-05-19T02:01:52;102508.50;;;7.06;92.57
59789;BME280;47353;51.614;5.530;2023-05-19T02:04:35;102506.16;;;7.03;92.62
59789;BME280;47353;51.614;5.530;2023-05-19T02:07:18;102497.69;;;7.04;91.75
59789;BME280;47353;51.614;5.530;2023-05-19T02:09:55;102505.97;;;7.04;92.49
59789;BME280;47353;51.614;5.530;2023-05-19T02:15:09;102508.91;;;7.03;92.90
59789;BME280;47353;51.614;5.530;2023-05-19T02:17:37;102499.16;;;7.07;92.51
59789;BME280;47353;51.614;5.530;2023-05-19T02:20:06;102501.31;;;7.05;93.07
59789;BME280;47353;51.614;5.530;2023-05-19T02:22:33;102503.63;;;7.08;92.76
59789;BME280;47353;51.614;5.530;2023-05-19T02:24:58;102493.88;;;7.05;93.29
59789;BME280;47353;51.614;5.530;2023-05-19T02:27:24;102500.66;;;7.03;93.23
59789;BME280;47353;51.614;5.530;2023-05-19T02:29:50;102502.34;;;7.04;93.58
59789;BME280;47353;51.614;5.530;2023-05-19T02:32:16;102492.84;;;7.00;93.55
59789;BME280;47353;51.614;5.530;2023-05-19T02:34:42;102495.16;;;7.03;93.36
59789;BME280;47353;51.614;5.530;2023-05-19T02:37:14;102493.47;;;7.02;94.12
59789;BME280;47353;51.614;5.530;2023-05-19T02:39:40;102485.22;;;6.95;94.37
59789;BME280;47353;51.614;5.530;2023-05-19T02:42:06;102490.94;;;7.00;94.00
59789;BME280;47353;51.614;5.530;2023-05-19T02:44:31;102481.19;;;6.98;94.15
59789;BME280;47353;51.614;5.530;2023-05-19T02:46:57;102496.22;;;7.02;94.26
59789;BME280;47353;51.614;5.530;2023-05-19T02:49:22;102480.53;;;7.02;94.07
59789;BME280;47353;51.614;5.530;2023-05-19T02:51:48;102487.53;;;6.98;94.62
59789;BME280;47353;51.614;5.530;2023-05-19T02:54:13;102474.00;;;6.97;94.49
59789;BME280;47353;51.614;5.530;2023-05-19T02:56:39;102477.38;;;6.92;95.30
59789;BME280;47353;51.614;5.530;2023-05-19T02:59:04;102480.56;;;6.89;95.65
59789;BME280;47353;51.614;5.530;2023-05-19T03:01:30;102481.59;;;6.88;95.72
59789;BME280;47353;51.614;5.530;2023-05-19T03:03:57;102476.31;;;6.87;95.96
59789;BME280;47353;51.614;5.530;2023-05-19T03:06:22;102471.03;;;6.85;96.55
59789;BME280;47353;51.614;5.530;2023-05-19T03:08:48;102468.31;;;6.78;96.85
59789;BME280;47353;51.614;5.530;2023-05-19T03:11:14;102470.41;;;6.76;97.43
59789;BME280;47353;51.614;5.530;2023-05-19T03:13:40;102471.66;;;6.80;96.84
59789;BME280;47353;51.614;5.530;2023-05-19T03:16:05;102470.63;;;6.75;97.91
59789;BME280;47353;51.614;5.530;2023-05-19T03:18:35;102478.22;;;6.73;98.24
59789;BME280;47353;51.614;5.530;2023-05-19T03:21:01;102482.66;;;6.74;98.62
59789;BME280;47353;51.614;5.530;2023-05-19T03:23:26;102478.66;;;6.70;98.82
59789;BME280;47353;51.614;5.530;2023-05-19T03:25:51;102479.94;;;6.67;98.92
59789;BME280;47353;51.614;5.530;2023-05-19T03:28:20;102480.16;;;6.66;99.21
59789;BME280;47353;51.614;5.530;2023-05-19T03:30:47;102480.56;;;6.63;99.59
59789;BME280;47353;51.614;5.530;2023-05-19T03:33:14;102477.63;;;6.64;99.15
59789;BME280;47353;51.614;5.530;2023-05-19T03:35:40;102480.78;;;6.61;99.74
59789;BME280;47353;51.614;5.530;2023-05-19T03:38:05;102482.69;;;6.61;100.00
59789;BME280;47353;51.614;5.530;2023-05-19T03:40:31;102485.84;;;6.58;100.00
59789;BME280;47353;51.614;5.530;2023-05-19T03:42:56;102484.56;;;6.54;100.00
59789;BME280;47353;51.614;5.530;2023-05-19T03:45:21;102488.38;;;6.53;100.00
59789;BME280;47353;51.614;5.530;2023-05-19T03:47:47;102491.34;;;6.51;100.00
59789;BME280;47353;51.614;5.530;2023-05-19T03:50:12;102491.34;;;6.51;100.00
59789;BME280;47353;51.614;5.530;2023-05-19T03:52:38;102489.66;;;6.50;100.00
59789;BME280;47353;51.614;5.530;2023-05-19T03:55:04;102492.19;;;6.52;100.00
59789;BME280;47353;51.614;5.530;2023-05-19T03:57:30;102497.91;;;6.50;100.00
59789;BME280;47353;51.614;5.530;2023-05-19T03:59:55;102504.25;;;6.51;100.00
59789;BME280;47353;51.614;5.530;2023-05-19T04:02:20;102502.56;;;6.50;100.00
59789;BME280;47353;51.614;5.530;2023-05-19T04:04:46;102500.03;;;6.48;100.00
59789;BME280;47353;51.614;5.530;2023-05-19T04:07:11;102502.78;;;6.48;100.00
59789;BME280;47353;51.614;5.530;2023-05-19T04:09:37;102497.28;;;6.48;100.00
59789;BME280;47353;51.614;5.530;2023-05-19T04:12:03;102496.00;;;6.44;100.00
59789;BME280;47353;51.614;5.530;2023-05-19T04:14:28;102497.47;;;6.47;100.00
59789;BME280;47353;51.614;5.530;2023-05-19T04:16:54;102496.41;;;6.48;100.00
59789;BME280;47353;51.614;5.530;2023-05-19T04:19:19;102502.13;;;6.46;100.00
59789;BME280;47353;51.614;5.530;2023-05-19T04:21:45;102500.03;;;6.48;100.00
59789;BME280;47353;51.614;5.530;2023-05-19T04:24:11;102497.28;;;6.48;100.00
59789;BME280;47353;51.614;5.530;2023-05-19T04:26:36;102492.84;;;6.47;100.00
59789;BME280;47353;51.614;5.530;2023-05-19T04:29:03;102498.13;;;6.49;100.00
59789;BME280;47353;51.614;5.530;2023-05-19T04:31:29;102492.00;;;6.53;100.00
59789;BME280;47353;51.614;5.530;2023-05-19T04:33:54;102498.31;;;6.54;100.00
59789;BME280;47353;51.614;5.530;2023-05-19T04:36:19;102496.84;;;6.58;100.00
59789;BME280;47353;51.614;5.530;2023-05-19T04:38:46;102496.22;;;6.62;100.00
59789;BME280;47353;51.614;5.530;2023-05-19T04:41:12;102494.72;;;6.66;100.00
59789;BME280;47353;51.614;5.530;2023-05-19T04:43:38;102500.25;;;6.73;100.00
59789;BME280;47353;51.614;5.530;2023-05-19T04:46:06;102495.19;;;6.76;100.00
59789;BME280;47353;51.614;5.530;2023-05-19T04:48:32;102504.47;;;6.89;100.00
59789;BME280;47353;51.614;5.530;2023-05-19T04:50:58;102492.81;;;6.93;100.00
59789;BME280;47353;51.614;5.530;2023-05-19T04:53:27;102500.66;;;6.96;100.00
59789;BME280;47353;51.614;5.530;2023-05-19T04:55:52;102499.59;;;7.04;100.00
59789;BME280;47353;51.614;5.530;2023-05-19T04:58:18;102493.47;;;7.02;100.00
59789;BME280;47353;51.614;5.530;2023-05-19T05:00:43;102504.47;;;7.08;100.00
59789;BME280;47353;51.614;5.530;2023-05-19T05:03:09;102499.16;;;7.13;100.00
59789;BME280;47353;51.614;5.530;2023-05-19T05:05:34;102504.25;;;7.16;100.00
59789;BME280;47353;51.614;5.530;2023-05-19T05:08:00;102487.06;;;7.21;100.00
59789;BME280;47353;51.614;5.530;2023-05-19T05:10:25;102497.44;;;7.25;100.00
59789;BME280;47353;51.614;5.530;2023-05-19T05:12:51;102507.16;;;7.34;100.00
59789;BME280;47353;51.614;5.530;2023-05-19T05:15:17;102498.47;;;7.37;100.00
59789;BME280;47353;51.614;5.530;2023-05-19T05:17:42;102498.03;;;7.47;100.00
59789;BME280;47353;51.614;5.530;2023-05-19T05:20:08;102504.38;;;7.54;100.00
59789;BME280;47353;51.614;5.530;2023-05-19T05:22:36;102502.22;;;7.62;100.00
59789;BME280;47353;51.614;5.530;2023-05-19T05:25:03;102509.16;;;7.71;100.00
59789;BME280;47353;51.614;5.530;2023-05-19T05:27:28;102505.31;;;7.79;100.00
59789;BME280;47353;51.614;5.530;2023-05-19T05:29:54;102513.78;;;7.90;99.50
59789;BME280;47353;51.614;5.530;2023-05-19T05:32:20;102508.00;;;7.98;98.95
59789;BME280;47353;51.614;5.530;2023-05-19T05:34:45;102510.09;;;8.09;98.26
59789;BME280;47353;51.614;5.530;2023-05-19T05:37:11;102512.97;;;8.21;97.24
59789;BME280;47353;51.614;5.530;2023-05-19T05:39:36;102517.38;;;8.35;97.28
59789;BME280;47353;51.614;5.530;2023-05-19T05:42:01;102516.44;;;8.48;96.68
59789;BME280;47353;51.614;5.530;2023-05-19T05:44:27;102508.91;;;8.61;96.45
59789;BME280;47353;51.614;5.530;2023-05-19T05:46:52;102507.06;;;8.80;95.80
59789;BME280;47353;51.614;5.530;2023-05-19T05:49:18;102505.00;;;9.00;95.28
59789;BME280;47353;51.614;5.530;2023-05-19T05:51:44;102508.88;;;9.17;93.88
59789;BME280;47353;51.614;5.530;2023-05-19T05:54:11;102501.44;;;9.35;93.48
59789;BME280;47353;51.614;5.530;2023-05-19T05:56:37;102508.06;;;9.52;93.65
59789;BME280;47353;51.614;5.530;2023-05-19T05:59:02;102512.00;;;9.63;91.04
59789;BME280;47353;51.614;5.530;2023-05-19T06:01:28;102505.63;;;9.80;90.16
59789;BME280;47353;51.614;5.530;2023-05-19T06:03:56;102499.66;;;9.95;89.58
59789;BME280;47353;51.614;5.530;2023-05-19T06:06:22;102509.06;;;10.12;90.13
59789;BME280;47353;51.614;5.530;2023-05-19T06:08:47;102510.31;;;10.28;87.88
59789;BME280;47353;51.614;5.530;2023-05-19T06:11:13;102504.72;;;10.46;88.03
59789;BME280;47353;51.614;5.530;2023-05-19T06:13:38;102511.03;;;10.64;87.19
59789;BME280;47353;51.614;5.530;2023-05-19T06:16:07;102514.47;;;10.89;87.04
59789;BME280;47353;51.614;5.530;2023-05-19T06:18:32;102523.91;;;11.11;87.36
59789;BME280;47353;51.614;5.530;2023-05-19T06:20:58;102522.22;;;11.22;82.85
59789;BME280;47353;51.614;5.530;2023-05-19T06:23:23;102521.59;;;11.20;80.46
59789;BME280;47353;51.614;5.530;2023-05-19T06:25:50;102525.09;;;11.38;80.49
59789;BME280;47353;51.614;5.530;2023-05-19T06:28:16;102515.47;;;11.52;79.76
59789;BME280;47353;51.614;5.530;2023-05-19T06:30:41;102529.38;;;11.64;79.49
59789;BME280;47353;51.614;5.530;2023-05-19T06:33:07;102526.56;;;11.75;78.00
59789;BME280;47353;51.614;5.530;2023-05-19T06:35:32;102525.06;;;11.96;77.31
59789;BME280;47353;51.614;5.530;2023-05-19T06:37:58;102527.28;;;12.22;75.28
59789;BME280;47353;51.614;5.530;2023-05-19T06:40:23;102526.44;;;12.50;75.23
59789;BME280;47353;51.614;5.530;2023-05-19T06:42:49;102522.91;;;12.54;73.32
59789;BME280;47353;51.614;5.530;2023-05-19T06:45:14;102524.03;;;12.70;72.05
59789;BME280;47353;51.614;5.530;2023-05-19T06:47:40;102525.31;;;12.79;70.80
59789;BME280;47353;51.614;5.530;2023-05-19T06:50:07;102519.44;;;12.92;70.28
59789;BME280;47353;51.614;5.530;2023-05-19T06:52:33;102521.84;;;13.00;69.72
59789;BME280;47353;51.614;5.530;2023-05-19T06:54:59;102521.22;;;13.31;68.52
59789;BME280;47353;51.614;5.530;2023-05-19T06:57:24;102518.25;;;13.37;69.11
59789;BME280;47353;51.614;5.530;2023-05-19T06:59:49;102523.69;;;13.66;67.34
59789;BME280;47353;51.614;5.530;2023-05-19T07:02:15;102520.94;;;13.87;66.10
59789;BME280;47353;51.614;5.530;2023-05-19T07:04:40;102526.25;;;13.89;65.46
59789;BME280;47353;51.614;5.530;2023-05-19T07:07:07;102524.25;;;14.06;63.78
59789;BME280;47353;51.614;5.530;2023-05-19T07:09:32;102517.44;;;14.40;62.89
59789;BME280;47353;51.614;5.530;2023-05-19T07:11:57;102526.16;;;14.48;62.02
59789;BME280;47353;51.614;5.530;2023-05-19T07:14:23;102526.81;;;14.55;62.62
59789;BME280;47353;51.614;5.530;2023-05-19T07:16:48;102530.59;;;14.71;61.79
59789;BME280;47353;51.614;5.530;2023-05-19T07:19:14;102527.81;;;14.71;59.78
59789;BME280;47353;51.614;5.530;2023-05-19T07:21:39;102530.81;;;14.64;60.21
59789;BME280;47353;51.614;5.530;2023-05-19T07:24:06;102533.50;;;15.13;59.71
59789;BME280;47353;51.614;5.530;2023-05-19T07:26:32;102532.38;;;15.45;59.75
59789;BME280;47353;51.614;5.530;2023-05-19T07:28:57;102525.41;;;15.48;58.21
59789;BME280;47353;51.614;5.530;2023-05-19T07:31:23;102525.94;;;15.86;56.82
59789;BME280;47353;51.614;5.530;2023-05-19T07:33:48;102534.31;;;16.48;55.57
59789;BME280;47353;51.614;5.530;2023-05-19T07:36:13;102525.38;;;16.61;55.29
59789;BME280;47353;51.614;5.530;2023-05-19T07:38:39;102528.81;;;16.88;53.85
59789;BME280;47353;51.614;5.530;2023-05-19T07:41:04;102532.75;;;17.22;50.88
59789;BME280;47353;51.614;5.530;2023-05-19T07:43:30;102530.22;;;17.41;49.68
59789;BME280;47353;51.614;5.530;2023-05-19T07:45:56;102530.69;;;17.83;49.19
59789;BME280;47353;51.614;5.530;2023-05-19T07:48:21;102522.47;;;18.16;47.29
59789;BME280;47353;51.614;5.530;2023-05-19T07:50:49;102519.25;;;18.87;45.95
59789;BME280;47353;51.614;5.530;2023-05-19T07:53:15;102525.66;;;19.59;44.06
59789;BME280;47353;51.614;5.530;2023-05-19T07:55:41;102528.66;;;20.20;42.06
59789;BME280;47353;51.614;5.530;2023-05-19T07:58:06;102528.19;;;20.74;40.72
59789;BME280;47353;51.614;5.530;2023-05-19T08:00:32;102523.53;;;20.64;39.09
59789;BME280;47353;51.614;5.530;2023-05-19T08:02:57;102517.97;;;21.79;38.69
59789;BME280;47353;51.614;5.530;2023-05-19T08:05:23;102517.81;;;22.38;37.83
59789;BME280;47353;51.614;5.530;2023-05-19T08:07:50;102507.22;;;22.71;35.69
59789;BME280;47353;51.614;5.530;2023-05-19T08:10:15;102522.88;;;23.13;34.97
59789;BME280;47353;51.614;5.530;2023-05-19T08:12:41;102514.56;;;22.94;33.60
59789;BME280;47353;51.614;5.530;2023-05-19T08:15:07;102505.66;;;23.00;33.33
59789;BME280;47353;51.614;5.530;2023-05-19T08:17:35;102511.59;;;23.35;33.50
59789;BME280;47353;51.614;5.530;2023-05-19T08:20:01;102511.56;;;23.57;32.81
59789;BME280;47353;51.614;5.530;2023-05-19T08:22:28;102513.47;;;23.39;33.26
59789;BME280;47353;51.614;5.530;2023-05-19T08:24:53;102508.06;;;23.29;33.11
59789;BME280;47353;51.614;5.530;2023-05-19T08:27:18;102496.81;;;23.38;33.63
59789;BME280;47353;51.614;5.530;2023-05-19T08:29:44;102494.50;;;23.70;32.55
59789;BME280;47353;51.614;5.530;2023-05-19T08:32:09;102496.41;;;24.22;32.47
59789;BME280;47353;51.614;5.530;2023-05-19T08:34:35;102492.16;;;24.85;29.95
59789;BME280;47353;51.614;5.530;2023-05-19T08:37:00;102492.56;;;25.72;29.38
59789;BME280;47353;51.614;5.530;2023-05-19T08:39:25;102487.56;;;25.60;29.13
59789;BME280;47353;51.614;5.530;2023-05-19T08:41:54;102488.59;;;26.60;28.47
59789;BME280;47353;51.614;5.530;2023-05-19T08:44:20;102484.22;;;27.04;27.00
59789;BME280;47353;51.614;5.530;2023-05-19T08:46:46;102476.31;;;28.11;26.12
59789;BME280;47353;51.614;5.530;2023-05-19T08:49:13;102474.91;;;28.17;24.08
59789;BME280;47353;51.614;5.530;2023-05-19T08:54:16;102473.19;;;29.31;24.72
59789;BME280;47353;51.614;5.530;2023-05-19T08:56:45;102465.53;;;29.94;24.37
59789;BME280;47353;51.614;5.530;2023-05-19T08:59:12;102465.47;;;29.90;21.92
59789;BME280;47353;51.614;5.530;2023-05-19T09:01:41;102453.06;;;30.67;21.89
59789;BME280;47353;51.614;5.530;2023-05-19T09:04:07;102470.06;;;30.95;21.06
59789;BME280;47353;51.614;5.530;2023-05-19T09:06:33;102456.19;;;31.16;20.13
59789;BME280;47353;51.614;5.530;2023-05-19T09:08:58;102454.94;;;31.55;20.17
59789;BME280;47353;51.614;5.530;2023-05-19T09:11:25;102465.34;;;31.25;19.46
59789;BME280;47353;51.614;5.530;2023-05-19T09:13:50;102458.03;;;30.70;18.32
59789;BME280;47353;51.614;5.530;2023-05-19T09:16:16;102456.91;;;30.21;19.12
59789;BME280;47353;51.614;5.530;2023-05-19T09:19:02;102444.97;;;30.19;21.61
59789;BME280;47353;51.614;5.530;2023-05-19T09:21:31;102454.97;;;29.79;19.78
59789;BME280;47353;51.614;5.530;2023-05-19T09:24:04;102437.75;;;30.41;21.05
59789;BME280;47353;51.614;5.530;2023-05-19T09:26:40;102445.13;;;31.34;19.82
59789;BME280;47353;51.614;5.530;2023-05-19T09:29:16;102439.66;;;31.29;19.39
59789;BME280;47353;51.614;5.530;2023-05-19T09:31:53;102444.94;;;31.46;18.50
59789;BME280;47353;51.614;5.530;2023-05-19T09:34:21;102436.97;;;30.59;18.81
59789;BME280;47353;51.614;5.530;2023-05-19T09:36:49;102430.03;;;31.18;18.16
59789;BME280;47353;51.614;5.530;2023-05-19T09:39:16;102434.81;;;31.74;18.16
59789;BME280;47353;51.614;5.530;2023-05-19T09:41:42;102433.56;;;30.73;19.32
59789;BME280;47353;51.614;5.530;2023-05-19T09:44:21;102429.72;;;30.46;19.39
59789;BME280;47353;51.614;5.530;2023-05-19T09:46:52;102434.69;;;31.90;18.81
59789;BME280;47353;51.614;5.530;2023-05-19T09:49:21;102438.31;;;32.91;18.29
59789;BME280;47353;51.614;5.530;2023-05-19T09:51:49;102440.31;;;33.20;16.47
59789;BME280;47353;51.614;5.530;2023-05-19T09:54:15;102437.06;;;33.25;16.86
59789;BME280;47353;51.614;5.530;2023-05-19T09:56:40;102433.34;;;34.02;16.37
59789;BME280;47353;51.614;5.530;2023-05-19T09:59:06;102432.81;;;33.89;15.70
59789;BME280;47353;51.614;5.530;2023-05-19T10:01:32;102435.81;;;33.56;15.79
59789;BME280;47353;51.614;5.530;2023-05-19T10:03:58;102436.81;;;33.77;15.95
59789;BME280;47353;51.614;5.530;2023-05-19T10:06:24;102430.13;;;34.78;15.73
59789;BME280;47353;51.614;5.530;2023-05-19T10:08:51;102439.22;;;34.84;15.36
59789;BME280;47353;51.614;5.530;2023-05-19T10:11:16;102430.44;;;35.59;15.20
59789;BME280;47353;51.614;5.530;2023-05-19T10:13:44;102438.66;;;35.61;15.26
59789;BME280;47353;51.614;5.530;2023-05-19T10:16:11;102424.56;;;35.17;13.87
59789;BME280;47353;51.614;5.530;2023-05-19T10:18:38;102431.63;;;35.37;14.88
59789;BME280;47353;51.614;5.530;2023-05-19T10:21:04;102427.16;;;35.64;14.44
59789;BME280;47353;51.614;5.530;2023-05-19T10:23:30;102422.72;;;33.65;15.33
59789;BME280;47353;51.614;5.530;2023-05-19T10:25:57;102426.69;;;33.14;16.64
59789;BME280;47353;51.614;5.530;2023-05-19T10:28:26;102423.47;;;34.53;16.42
59789;BME280;47353;51.614;5.530;2023-05-19T10:30:57;102413.44;;;35.12;15.09
59789;BME280;47353;51.614;5.530;2023-05-19T10:41:20;102405.22;;;33.37;17.67
59789;BME280;47353;51.614;5.530;2023-05-19T10:46:45;102394.53;;;36.48;14.22
59789;BME280;47353;51.614;5.530;2023-05-19T10:49:19;102397.84;;;37.36;14.28
59789;BME280;47353;51.614;5.530;2023-05-19T10:51:45;102386.00;;;38.19;13.37
59789;BME280;47353;51.614;5.530;2023-05-19T10:54:10;102393.75;;;39.00;12.91
59789;BME280;47353;51.614;5.530;2023-05-19T10:56:42;102396.97;;;38.38;12.67
59789;BME280;47353;51.614;5.530;2023-05-19T10:59:29;102395.38;;;38.33;13.91
59789;BME280;47353;51.614;5.530;2023-05-19T11:01:56;102392.13;;;37.84;13.20
59789;BME280;47353;51.614;5.530;2023-05-19T11:04:47;102387.88;;;36.75;15.18
59789;BME280;47353;51.614;5.530;2023-05-19T11:07:17;102386.41;;;35.80;15.17
59789;BME280;47353;51.614;5.530;2023-05-19T11:09:50;102389.69;;;36.03;13.99
59789;BME280;47353;51.614;5.530;2023-05-19T11:12:20;102389.59;;;35.29;13.76
59789;BME280;47353;51.614;5.530;2023-05-19T11:14:46;102381.91;;;35.86;13.95
59789;BME280;47353;51.614;5.530;2023-05-19T11:17:13;102375.66;;;36.22;13.94
59789;BME280;47353;51.614;5.530;2023-05-19T11:19:51;102392.50;;;37.35;14.13
59789;BME280;47353;51.614;5.530;2023-05-19T11:22:16;102389.19;;;37.40;13.70
59789;BME280;47353;51.614;5.530;2023-05-19T11:24:43;102380.19;;;36.13;12.87
59789;BME280;47353;51.614;5.530;2023-05-19T11:27:24;102390.09;;;35.77;13.84
59789;BME280;47353;51.614;5.530;2023-05-19T11:29:50;102386.78;;;36.17;14.03
59789;BME280;47353;51.614;5.530;2023-05-19T11:32:17;102386.81;;;35.50;13.17
59789;BME280;47353;51.614;5.530;2023-05-19T11:34:44;102381.03;;;35.82;13.23
59789;BME280;47353;51.614;5.530;2023-05-19T11:37:10;102370.72;;;35.31;13.52
59789;BME280;47353;51.614;5.530;2023-05-19T11:39:38;102385.47;;;34.30;14.37
59789;BME280;47353;51.614;5.530;2023-05-19T11:42:03;102372.34;;;34.29;14.99
59789;BME280;47353;51.614;5.530;2023-05-19T11:44:28;102380.25;;;34.39;15.27
59789;BME280;47353;51.614;5.530;2023-05-19T11:46:54;102373.97;;;35.19;14.53
59789;BME280;47353;51.614;5.530;2023-05-19T11:49:19;102360.06;;;35.67;15.45
59789;BME280;47353;51.614;5.530;2023-05-19T11:51:45;102349.34;;;35.50;14.22
59789;BME280;47353;51.614;5.530;2023-05-19T11:54:11;102352.66;;;35.63;13.83
59789;BME280;47353;51.614;5.530;2023-05-19T11:56:42;102357.06;;;35.00;14.46
59789;BME280;47353;51.614;5.530;2023-05-19T11:59:08;102348.06;;;35.26;14.80
59789;BME280;47353;51.614;5.530;2023-05-19T12:01:34;102350.50;;;35.14;15.28
59789;BME280;47353;51.614;5.530;2023-05-19T12:04:01;102347.59;;;34.93;15.11
59789;BME280;47353;51.614;5.530;2023-05-19T12:06:27;102353.88;;;35.51;14.40
59789;BME280;47353;51.614;5.530;2023-05-19T12:08:55;102339.88;;;34.29;14.17
59789;BME280;47353;51.614;5.530;2023-05-19T12:11:22;102339.72;;;34.86;13.82
59789;BME280;47353;51.614;5.530;2023-05-19T12:13:48;102330.91;;;33.76;14.31
59789;BME280;47353;51.614;5.530;2023-05-19T12:16:21;102330.09;;;33.28;15.48
59789;BME280;47353;51.614;5.530;2023-05-19T12:18:47;102339.19;;;32.97;16.06
59789;BME280;47353;51.614;5.530;2023-05-19T12:21:12;102337.41;;;32.53;16.17
59789;BME280;47353;51.614;5.530;2023-05-19T12:23:38;102331.94;;;31.62;16.25
59789;BME280;47353;51.614;5.530;2023-05-19T12:26:04;102324.41;;;30.87;17.24
59789;BME280;47353;51.614;5.530;2023-05-19T12:28:30;102323.09;;;30.08;17.91
59789;BME280;47353;51.614;5.530;2023-05-19T12:30:55;102323.16;;;30.46;18.79
59789;BME280;47353;51.614;5.530;2023-05-19T12:33:22;102332.25;;;30.51;17.97
59789;BME280;47353;51.614;5.530;2023-05-19T12:35:48;102318.53;;;30.60;18.85
59789;BME280;47353;51.614;5.530;2023-05-19T12:38:14;102318.06;;;30.97;17.03
59789;BME280;47353;51.614;5.530;2023-05-19T12:40:41;102320.41;;;30.91;18.08
59789;BME280;47353;51.614;5.530;2023-05-19T12:43:07;102322.78;;;29.78;17.80
59789;BME280;47353;51.614;5.530;2023-05-19T12:45:34;102316.56;;;29.26;18.97
59789;BME280;47353;51.614;5.530;2023-05-19T12:48:04;102314.63;;;29.46;19.57
59789;BME280;47353;51.614;5.530;2023-05-19T12:50:30;102316.19;;;29.59;19.26
59789;BME280;47353;51.614;5.530;2023-05-19T12:52:56;102303.88;;;29.23;18.85
59789;BME280;47353;51.614;5.530;2023-05-19T12:55:23;102299.06;;;29.12;18.80
59789;BME280;47353;51.614;5.530;2023-05-19T12:57:51;102293.22;;;28.77;19.22
59789;BME280;47353;51.614;5.530;2023-05-19T13:00:23;102294.22;;;28.42;20.46
59789;BME280;47353;51.614;5.530;2023-05-19T13:05:27;102295.75;;;28.51;19.73
59789;BME280;47353;51.614;5.530;2023-05-19T13:07:57;102296.09;;;28.93;20.25
59789;BME280;47353;51.614;5.530;2023-05-19T13:10:24;102289.38;;;28.03;20.81
59789;BME280;47353;51.614;5.530;2023-05-19T13:12:57;102283.66;;;28.15;20.99
59789;BME280;47353;51.614;5.530;2023-05-19T13:15:24;102281.94;;;28.53;21.00
59789;BME280;47353;51.614;5.530;2023-05-19T13:17:50;102284.41;;;28.27;20.60
59789;BME280;47353;51.614;5.530;2023-05-19T13:20:16;102300.19;;;27.61;20.94
59789;BME280;47353;51.614;5.530;2023-05-19T13:22:42;102283.50;;;27.47;20.75
59789;BME280;47353;51.614;5.530;2023-05-19T13:25:08;102269.78;;;27.49;20.92